sensor_id;sensor_type;location;lat;lon;timestamp;P1;durP1;ratioP1;P2;durP2;ratioP2
21297;SDS011;10808;48.010;11.326;2024-03-22T00:02:23;22.25;;;15.48;;
21297;SDS011;10808;48.010;11.326;2024-03-22T00:04:49;22.05;;;15.82;;
21297;SDS011;10808;48.010;11.326;2024-03-22T00:07:15;20.48;;;14.15;;
21297;SDS011;10808;48.010;11.326;2024-03-22T00:09:41;23.08;;;15.57;;
21297;SDS011;10808;48.010;11.326;2024-03-22T00:12:07;22.67;;;16.88;;
21297;SDS011;10808;48.010;11.326;2024-03-22T00:14:33;22.17;;;16.30;;
21297;SDS011;10808;48.010;11.326;2024-03-22T00:16:59;21.13;;;15.57;;
21297;SDS011;10808;48.010;11.326;2024-03-22T00:19:25;19.70;;;14.20;;
21297;SDS011;10808;48.010;11.326;2024-03-22T00:21:51;23.98;;;16.05;;
21297;SDS011;10808;48.010;11.326;2024-03-22T00:24:17;27.75;;;17.70;;
21297;SDS011;10808;48.010;11.326;2024-03-22T00:26:43;24.45;;;16.90;;
21297;SDS011;10808;48.010;11.326;2024-03-22T00:29:09;22.05;;;15.93;;
21297;SDS011;10808;48.010;11.326;2024-03-22T00:31:35;23.02;;;16.13;;
21297;SDS011;10808;48.010;11.326;2024-03-22T00:34:01;24.67;;;16.55;;
21297;SDS011;10808;48.010;11.326;2024-03-22T00:36:27;20.83;;;15.63;;
21297;SDS011;10808;48.010;11.326;2024-03-22T00:38:53;22.17;;;15.18;;
21297;SDS011;10808;48.010;11.326;2024-03-22T00:41:19;23.25;;;15.82;;
21297;SDS011;10808;48.010;11.326;2024-03-22T00:43:45;23.45;;;16.77;;
21297;SDS011;10808;48.010;11.326;2024-03-22T00:46:11;25.00;;;16.90;;
21297;SDS011;10808;48.010;11.326;2024-03-22T00:48:37;27.13;;;17.15;;
21297;SDS011;10808;48.010;11.326;2024-03-22T00:51:03;22.83;;;16.15;;
21297;SDS011;10808;48.010;11.326;2024-03-22T00:53:29;22.15;;;15.85;;
21297;SDS011;10808;48.010;11.326;2024-03-22T00:55:56;23.67;;;16.63;;
21297;SDS011;10808;48.010;11.326;2024-03-22T00:58:25;24.00;;;16.27;;
21297;SDS011;10808;48.010;11.326;2024-03-22T01:00:54;25.58;;;17.35;;
21297;SDS011;10808;48.010;11.326;2024-03-22T01:03:21;27.70;;;18.27;;
21297;SDS011;10808;48.010;11.326;2024-03-22T01:05:47;24.33;;;17.07;;
21297;SDS011;10808;48.010;11.326;2024-03-22T01:08:13;23.60;;;15.90;;
21297;SDS011;10808;48.010;11.326;2024-03-22T01:10:40;22.25;;;15.55;;
21297;SDS011;10808;48.010;11.326;2024-03-22T01:13:06;24.75;;;16.98;;
21297;SDS011;10808;48.010;11.326;2024-03-22T01:15:32;23.38;;;16.08;;
21297;SDS011;10808;48.010;11.326;2024-03-22T01:17:58;23.35;;;16.48;;
21297;SDS011;10808;48.010;11.326;2024-03-22T01:20:24;23.83;;;15.90;;
21297;SDS011;10808;48.010;11.326;2024-03-22T01:22:50;23.33;;;14.98;;
21297;SDS011;10808;48.010;11.326;2024-03-22T01:25:16;22.40;;;16.05;;
21297;SDS011;10808;48.010;11.326;2024-03-22T01:27:42;28.70;;;18.92;;
21297;SDS011;10808;48.010;11.326;2024-03-22T01:30:08;25.05;;;17.02;;
21297;SDS011;10808;48.010;11.326;2024-03-22T01:32:35;25.88;;;17.45;;
21297;SDS011;10808;48.010;11.326;2024-03-22T01:35:01;22.83;;;16.17;;
21297;SDS011;10808;48.010;11.326;2024-03-22T01:37:27;21.95;;;15.52;;
21297;SDS011;10808;48.010;11.326;2024-03-22T01:39:53;27.67;;;17.80;;
21297;SDS011;10808;48.010;11.326;2024-03-22T01:42:19;26.83;;;18.08;;
21297;SDS011;10808;48.010;11.326;2024-03-22T01:44:45;25.23;;;17.30;;
21297;SDS011;10808;48.010;11.326;2024-03-22T01:47:12;22.47;;;15.53;;
21297;SDS011;10808;48.010;11.326;2024-03-22T01:49:38;21.90;;;15.10;;
21297;SDS011;10808;48.010;11.326;2024-03-22T01:52:04;21.80;;;15.57;;
21297;SDS011;10808;48.010;11.326;2024-03-22T01:54:31;25.48;;;17.23;;
21297;SDS011;10808;48.010;11.326;2024-03-22T01:56:57;25.63;;;16.90;;
21297;SDS011;10808;48.010;11.326;2024-03-22T01:59:23;23.95;;;16.10;;
21297;SDS011;10808;48.010;11.326;2024-03-22T02:01:49;24.60;;;16.40;;
21297;SDS011;10808;48.010;11.326;2024-03-22T02:04:15;24.73;;;16.63;;
21297;SDS011;10808;48.010;11.326;2024-03-22T02:06:41;25.65;;;17.10;;
21297;SDS011;10808;48.010;11.326;2024-03-22T02:09:07;27.25;;;17.45;;
21297;SDS011;10808;48.010;11.326;2024-03-22T02:11:36;22.45;;;15.95;;
21297;SDS011;10808;48.010;11.326;2024-03-22T02:14:05;22.33;;;15.38;;
21297;SDS011;10808;48.010;11.326;2024-03-22T02:16:31;21.92;;;15.18;;
21297;SDS011;10808;48.010;11.326;2024-03-22T02:18:57;21.23;;;15.70;;
21297;SDS011;10808;48.010;11.326;2024-03-22T02:21:23;23.23;;;16.03;;
21297;SDS011;10808;48.010;11.326;2024-03-22T02:23:49;26.98;;;17.52;;
21297;SDS011;10808;48.010;11.326;2024-03-22T02:26:16;26.55;;;17.10;;
21297;SDS011;10808;48.010;11.326;2024-03-22T02:28:42;21.70;;;14.95;;
21297;SDS011;10808;48.010;11.326;2024-03-22T02:31:08;20.23;;;14.93;;
21297;SDS011;10808;48.010;11.326;2024-03-22T02:33:34;20.05;;;14.63;;
21297;SDS011;10808;48.010;11.326;2024-03-22T02:36:00;21.95;;;15.30;;
21297;SDS011;10808;48.010;11.326;2024-03-22T02:38:26;23.05;;;16.00;;
21297;SDS011;10808;48.010;11.326;2024-03-22T02:40:52;24.08;;;16.80;;
21297;SDS011;10808;48.010;11.326;2024-03-22T02:43:19;26.48;;;17.48;;
21297;SDS011;10808;48.010;11.326;2024-03-22T02:45:47;24.27;;;16.13;;
21297;SDS011;10808;48.010;11.326;2024-03-22T02:48:13;21.00;;;14.68;;
21297;SDS011;10808;48.010;11.326;2024-03-22T02:50:39;22.17;;;15.10;;
21297;SDS011;10808;48.010;11.326;2024-03-22T02:53:06;21.52;;;15.18;;
21297;SDS011;10808;48.010;11.326;2024-03-22T02:55:36;21.67;;;14.43;;
21297;SDS011;10808;48.010;11.326;2024-03-22T02:58:03;23.52;;;16.27;;
21297;SDS011;10808;48.010;11.326;2024-03-22T03:00:29;25.33;;;16.73;;
21297;SDS011;10808;48.010;11.326;2024-03-22T03:02:55;20.17;;;14.35;;
21297;SDS011;10808;48.010;11.326;2024-03-22T03:05:21;20.80;;;14.97;;
21297;SDS011;10808;48.010;11.326;2024-03-22T03:07:50;18.40;;;13.50;;
21297;SDS011;10808;48.010;11.326;2024-03-22T03:10:16;21.33;;;15.15;;
21297;SDS011;10808;48.010;11.326;2024-03-22T03:12:42;19.23;;;14.10;;
21297;SDS011;10808;48.010;11.326;2024-03-22T03:15:08;20.48;;;13.40;;
21297;SDS011;10808;48.010;11.326;2024-03-22T03:17:34;19.45;;;13.65;;
21297;SDS011;10808;48.010;11.326;2024-03-22T03:20:00;22.70;;;15.18;;
21297;SDS011;10808;48.010;11.326;2024-03-22T03:22:26;24.90;;;16.07;;
21297;SDS011;10808;48.010;11.326;2024-03-22T03:24:52;20.85;;;15.10;;
21297;SDS011;10808;48.010;11.326;2024-03-22T03:27:18;22.67;;;15.10;;
21297;SDS011;10808;48.010;11.326;2024-03-22T03:29:44;20.23;;;14.30;;
21297;SDS011;10808;48.010;11.326;2024-03-22T03:32:10;21.17;;;14.27;;
21297;SDS011;10808;48.010;11.326;2024-03-22T03:34:36;20.00;;;14.43;;
21297;SDS011;10808;48.010;11.326;2024-03-22T03:37:02;20.95;;;14.32;;
21297;SDS011;10808;48.010;11.326;2024-03-22T03:39:28;21.05;;;14.57;;
21297;SDS011;10808;48.010;11.326;2024-03-22T03:41:55;21.85;;;15.32;;
21297;SDS011;10808;48.010;11.326;2024-03-22T03:44:21;21.63;;;15.43;;
21297;SDS011;10808;48.010;11.326;2024-03-22T03:46:47;26.05;;;17.17;;
21297;SDS011;10808;48.010;11.326;2024-03-22T03:49:13;26.05;;;17.63;;
21297;SDS011;10808;48.010;11.326;2024-03-22T03:51:39;25.77;;;16.85;;
21297;SDS011;10808;48.010;11.326;2024-03-22T03:54:05;26.38;;;16.25;;
21297;SDS011;10808;48.010;11.326;2024-03-22T03:56:31;26.40;;;16.87;;
21297;SDS011;10808;48.010;11.326;2024-03-22T03:58:57;23.60;;;16.23;;
21297;SDS011;10808;48.010;11.326;2024-03-22T04:01:23;28.58;;;17.27;;
21297;SDS011;10808;48.010;11.326;2024-03-22T04:03:49;25.30;;;17.20;;
21297;SDS011;10808;48.010;11.326;2024-03-22T04:06:15;30.42;;;18.70;;
21297;SDS011;10808;48.010;11.326;2024-03-22T04:08:42;29.75;;;18.60;;
21297;SDS011;10808;48.010;11.326;2024-03-22T04:11:08;27.40;;;17.25;;
21297;SDS011;10808;48.010;11.326;2024-03-22T04:13:34;25.17;;;16.00;;
21297;SDS011;10808;48.010;11.326;2024-03-22T04:16:00;25.00;;;16.05;;
21297;SDS011;10808;48.010;11.326;2024-03-22T04:18:26;23.25;;;15.90;;
21297;SDS011;10808;48.010;11.326;2024-03-22T04:20:56;25.42;;;16.45;;
21297;SDS011;10808;48.010;11.326;2024-03-22T04:23:23;23.38;;;15.50;;
21297;SDS011;10808;48.010;11.326;2024-03-22T04:25:56;23.50;;;15.55;;
21297;SDS011;10808;48.010;11.326;2024-03-22T04:28:29;25.17;;;15.65;;
21297;SDS011;10808;48.010;11.326;2024-03-22T04:30:59;22.75;;;15.35;;
21297;SDS011;10808;48.010;11.326;2024-03-22T04:33:29;21.83;;;14.98;;
21297;SDS011;10808;48.010;11.326;2024-03-22T04:35:57;24.20;;;15.32;;
21297;SDS011;10808;48.010;11.326;2024-03-22T04:38:24;23.67;;;15.00;;
21297;SDS011;10808;48.010;11.326;2024-03-22T04:40:54;22.05;;;14.60;;
21297;SDS011;10808;48.010;11.326;2024-03-22T04:43:21;23.08;;;15.20;;
21297;SDS011;10808;48.010;11.326;2024-03-22T04:45:48;20.13;;;14.20;;
21297;SDS011;10808;48.010;11.326;2024-03-22T04:48:14;21.65;;;14.85;;
21297;SDS011;10808;48.010;11.326;2024-03-22T04:50:42;23.13;;;15.50;;
21297;SDS011;10808;48.010;11.326;2024-03-22T04:53:08;21.00;;;14.80;;
21297;SDS011;10808;48.010;11.326;2024-03-22T04:55:34;20.80;;;14.38;;
21297;SDS011;10808;48.010;11.326;2024-03-22T04:58:00;20.63;;;13.63;;
21297;SDS011;10808;48.010;11.326;2024-03-22T05:00:30;23.50;;;14.63;;
21297;SDS011;10808;48.010;11.326;2024-03-22T05:02:56;22.87;;;14.60;;
21297;SDS011;10808;48.010;11.326;2024-03-22T05:05:22;25.05;;;16.75;;
21297;SDS011;10808;48.010;11.326;2024-03-22T05:07:48;26.08;;;16.77;;
21297;SDS011;10808;48.010;11.326;2024-03-22T05:10:14;25.33;;;16.08;;
21297;SDS011;10808;48.010;11.326;2024-03-22T05:12:42;26.65;;;16.20;;
21297;SDS011;10808;48.010;11.326;2024-03-22T05:15:08;29.45;;;17.40;;
21297;SDS011;10808;48.010;11.326;2024-03-22T05:17:34;31.05;;;17.90;;
21297;SDS011;10808;48.010;11.326;2024-03-22T05:20:00;29.77;;;17.38;;
21297;SDS011;10808;48.010;11.326;2024-03-22T05:22:27;33.97;;;19.10;;
21297;SDS011;10808;48.010;11.326;2024-03-22T05:24:53;29.67;;;18.00;;
21297;SDS011;10808;48.010;11.326;2024-03-22T05:27:19;29.37;;;17.87;;
21297;SDS011;10808;48.010;11.326;2024-03-22T05:29:45;30.65;;;18.25;;
21297;SDS011;10808;48.010;11.326;2024-03-22T05:32:11;30.55;;;17.88;;
21297;SDS011;10808;48.010;11.326;2024-03-22T05:34:37;28.83;;;17.67;;
21297;SDS011;10808;48.010;11.326;2024-03-22T05:37:03;29.92;;;18.25;;
21297;SDS011;10808;48.010;11.326;2024-03-22T05:39:29;33.35;;;19.25;;
21297;SDS011;10808;48.010;11.326;2024-03-22T05:41:56;32.08;;;19.05;;
21297;SDS011;10808;48.010;11.326;2024-03-22T05:44:22;29.85;;;17.50;;
21297;SDS011;10808;48.010;11.326;2024-03-22T05:46:48;32.45;;;18.75;;
21297;SDS011;10808;48.010;11.326;2024-03-22T05:49:14;36.30;;;20.40;;
21297;SDS011;10808;48.010;11.326;2024-03-22T05:51:40;36.80;;;20.77;;
21297;SDS011;10808;48.010;11.326;2024-03-22T05:54:06;36.45;;;20.83;;
21297;SDS011;10808;48.010;11.326;2024-03-22T05:56:33;42.63;;;22.42;;
21297;SDS011;10808;48.010;11.326;2024-03-22T05:58:59;43.77;;;23.27;;
21297;SDS011;10808;48.010;11.326;2024-03-22T06:01:25;42.92;;;22.67;;
21297;SDS011;10808;48.010;11.326;2024-03-22T06:03:51;41.40;;;22.05;;
21297;SDS011;10808;48.010;11.326;2024-03-22T06:06:17;43.67;;;22.87;;
21297;SDS011;10808;48.010;11.326;2024-03-22T06:08:44;39.25;;;22.42;;
21297;SDS011;10808;48.010;11.326;2024-03-22T06:11:10;48.50;;;23.48;;
21297;SDS011;10808;48.010;11.326;2024-03-22T06:13:37;44.33;;;22.40;;
21297;SDS011;10808;48.010;11.326;2024-03-22T06:16:03;41.58;;;21.60;;
21297;SDS011;10808;48.010;11.326;2024-03-22T06:18:29;40.80;;;21.75;;
21297;SDS011;10808;48.010;11.326;2024-03-22T06:20:55;36.28;;;20.98;;
21297;SDS011;10808;48.010;11.326;2024-03-22T06:23:21;38.20;;;20.65;;
21297;SDS011;10808;48.010;11.326;2024-03-22T06:25:51;33.50;;;19.70;;
21297;SDS011;10808;48.010;11.326;2024-03-22T06:28:18;33.38;;;19.67;;
21297;SDS011;10808;48.010;11.326;2024-03-22T06:30:44;35.83;;;19.48;;
21297;SDS011;10808;48.010;11.326;2024-03-22T06:33:10;38.65;;;19.45;;
21297;SDS011;10808;48.010;11.326;2024-03-22T06:35:36;34.95;;;20.17;;
21297;SDS011;10808;48.010;11.326;2024-03-22T06:38:02;35.78;;;19.58;;
21297;SDS011;10808;48.010;11.326;2024-03-22T06:40:28;35.45;;;19.27;;
21297;SDS011;10808;48.010;11.326;2024-03-22T06:42:54;35.35;;;20.10;;
21297;SDS011;10808;48.010;11.326;2024-03-22T06:45:20;36.08;;;20.23;;
21297;SDS011;10808;48.010;11.326;2024-03-22T06:47:46;36.77;;;19.83;;
21297;SDS011;10808;48.010;11.326;2024-03-22T06:50:12;34.10;;;19.30;;
21297;SDS011;10808;48.010;11.326;2024-03-22T06:52:38;37.97;;;20.40;;
21297;SDS011;10808;48.010;11.326;2024-03-22T06:55:05;31.80;;;18.48;;
21297;SDS011;10808;48.010;11.326;2024-03-22T06:57:32;32.28;;;18.48;;
21297;SDS011;10808;48.010;11.326;2024-03-22T06:59:59;34.17;;;19.30;;
21297;SDS011;10808;48.010;11.326;2024-03-22T07:02:25;31.30;;;18.27;;
21297;SDS011;10808;48.010;11.326;2024-03-22T07:04:51;32.00;;;19.20;;
21297;SDS011;10808;48.010;11.326;2024-03-22T07:07:18;27.50;;;17.10;;
21297;SDS011;10808;48.010;11.326;2024-03-22T07:09:44;30.75;;;17.48;;
21297;SDS011;10808;48.010;11.326;2024-03-22T07:12:11;25.70;;;16.02;;
21297;SDS011;10808;48.010;11.326;2024-03-22T07:14:37;23.40;;;15.52;;
21297;SDS011;10808;48.010;11.326;2024-03-22T07:17:03;24.20;;;14.65;;
21297;SDS011;10808;48.010;11.326;2024-03-22T07:19:29;19.35;;;14.32;;
21297;SDS011;10808;48.010;11.326;2024-03-22T07:21:55;22.83;;;14.82;;
21297;SDS011;10808;48.010;11.326;2024-03-22T07:24:21;19.43;;;14.20;;
21297;SDS011;10808;48.010;11.326;2024-03-22T07:26:49;20.55;;;14.18;;
21297;SDS011;10808;48.010;11.326;2024-03-22T07:29:15;20.35;;;14.48;;
21297;SDS011;10808;48.010;11.326;2024-03-22T07:31:44;18.40;;;13.60;;
21297;SDS011;10808;48.010;11.326;2024-03-22T07:34:10;18.40;;;13.05;;
21297;SDS011;10808;48.010;11.326;2024-03-22T07:36:39;16.55;;;13.13;;
21297;SDS011;10808;48.010;11.326;2024-03-22T07:39:06;16.67;;;13.20;;
21297;SDS011;10808;48.010;11.326;2024-03-22T07:41:32;17.52;;;12.50;;
21297;SDS011;10808;48.010;11.326;2024-03-22T07:43:59;16.45;;;12.23;;
21297;SDS011;10808;48.010;11.326;2024-03-22T07:46:26;16.63;;;12.07;;
21297;SDS011;10808;48.010;11.326;2024-03-22T07:48:52;17.13;;;12.50;;
21297;SDS011;10808;48.010;11.326;2024-03-22T07:51:19;17.98;;;12.60;;
21297;SDS011;10808;48.010;11.326;2024-03-22T07:53:45;15.97;;;11.83;;
21297;SDS011;10808;48.010;11.326;2024-03-22T07:56:11;15.13;;;10.98;;
21297;SDS011;10808;48.010;11.326;2024-03-22T07:58:38;14.48;;;10.90;;
21297;SDS011;10808;48.010;11.326;2024-03-22T08:01:04;14.13;;;11.00;;
21297;SDS011;10808;48.010;11.326;2024-03-22T08:03:31;14.70;;;11.27;;
21297;SDS011;10808;48.010;11.326;2024-03-22T08:05:57;14.32;;;11.48;;
21297;SDS011;10808;48.010;11.326;2024-03-22T08:08:26;11.50;;;10.18;;
21297;SDS011;10808;48.010;11.326;2024-03-22T08:10:52;13.18;;;10.65;;
21297;SDS011;10808;48.010;11.326;2024-03-22T08:13:18;11.93;;;10.13;;
21297;SDS011;10808;48.010;11.326;2024-03-22T08:15:44;12.27;;;9.85;;
21297;SDS011;10808;48.010;11.326;2024-03-22T08:18:11;11.30;;;9.20;;
21297;SDS011;10808;48.010;11.326;2024-03-22T08:20:38;10.82;;;8.90;;
21297;SDS011;10808;48.010;11.326;2024-03-22T08:23:05;10.50;;;8.95;;
21297;SDS011;10808;48.010;11.326;2024-03-22T08:25:31;10.50;;;7.90;;
21297;SDS011;10808;48.010;11.326;2024-03-22T08:27:57;10.38;;;7.80;;
21297;SDS011;10808;48.010;11.326;2024-03-22T08:30:24;8.52;;;7.22;;
21297;SDS011;10808;48.010;11.326;2024-03-22T08:32:51;8.18;;;7.25;;
21297;SDS011;10808;48.010;11.326;2024-03-22T08:35:17;9.00;;;7.40;;
21297;SDS011;10808;48.010;11.326;2024-03-22T08:37:43;9.57;;;6.88;;
21297;SDS011;10808;48.010;11.326;2024-03-22T08:40:10;9.13;;;7.05;;
21297;SDS011;10808;48.010;11.326;2024-03-22T08:42:36;7.35;;;6.47;;
21297;SDS011;10808;48.010;11.326;2024-03-22T08:45:02;7.15;;;6.40;;
21297;SDS011;10808;48.010;11.326;2024-03-22T08:47:30;7.00;;;6.00;;
21297;SDS011;10808;48.010;11.326;2024-03-22T08:49:56;8.93;;;6.30;;
21297;SDS011;10808;48.010;11.326;2024-03-22T08:52:23;7.10;;;6.40;;
21297;SDS011;10808;48.010;11.326;2024-03-22T08:54:52;6.82;;;5.43;;
21297;SDS011;10808;48.010;11.326;2024-03-22T08:57:19;6.55;;;5.53;;
21297;SDS011;10808;48.010;11.326;2024-03-22T08:59:45;6.78;;;5.18;;
21297;SDS011;10808;48.010;11.326;2024-03-22T09:02:12;7.65;;;5.75;;
21297;SDS011;10808;48.010;11.326;2024-03-22T09:04:38;6.57;;;4.80;;
21297;SDS011;10808;48.010;11.326;2024-03-22T09:07:04;7.13;;;4.38;;
21297;SDS011;10808;48.010;11.326;2024-03-22T09:09:30;5.57;;;4.10;;
21297;SDS011;10808;48.010;11.326;2024-03-22T09:11:56;6.93;;;4.20;;
21297;SDS011;10808;48.010;11.326;2024-03-22T09:14:22;4.93;;;3.92;;
21297;SDS011;10808;48.010;11.326;2024-03-22T09:16:48;5.32;;;4.28;;
21297;SDS011;10808;48.010;11.326;2024-03-22T09:19:14;7.47;;;4.18;;
21297;SDS011;10808;48.010;11.326;2024-03-22T09:21:40;5.30;;;4.10;;
21297;SDS011;10808;48.010;11.326;2024-03-22T09:24:10;4.73;;;3.87;;
21297;SDS011;10808;48.010;11.326;2024-03-22T09:26:36;3.83;;;3.43;;
21297;SDS011;10808;48.010;11.326;2024-03-22T09:29:02;7.10;;;3.90;;
21297;SDS011;10808;48.010;11.326;2024-03-22T09:31:29;4.97;;;3.67;;
21297;SDS011;10808;48.010;11.326;2024-03-22T09:33:56;3.92;;;3.33;;
21297;SDS011;10808;48.010;11.326;2024-03-22T09:36:22;5.18;;;3.70;;
21297;SDS011;10808;48.010;11.326;2024-03-22T09:38:50;5.63;;;3.60;;
21297;SDS011;10808;48.010;11.326;2024-03-22T09:41:18;4.50;;;3.15;;
21297;SDS011;10808;48.010;11.326;2024-03-22T09:43:51;4.68;;;3.03;;
21297;SDS011;10808;48.010;11.326;2024-03-22T09:46:20;4.43;;;3.47;;
21297;SDS011;10808;48.010;11.326;2024-03-22T09:48:50;4.68;;;3.55;;
21297;SDS011;10808;48.010;11.326;2024-03-22T09:51:17;4.23;;;3.30;;
21297;SDS011;10808;48.010;11.326;2024-03-22T09:53:44;5.80;;;3.85;;
21297;SDS011;10808;48.010;11.326;2024-03-22T09:56:14;4.13;;;3.30;;
21297;SDS011;10808;48.010;11.326;2024-03-22T09:58:41;3.88;;;3.17;;
21297;SDS011;10808;48.010;11.326;2024-03-22T10:01:07;4.75;;;3.45;;
21297;SDS011;10808;48.010;11.326;2024-03-22T10:03:33;5.10;;;3.60;;
21297;SDS011;10808;48.010;11.326;2024-03-22T10:06:00;5.60;;;3.60;;
21297;SDS011;10808;48.010;11.326;2024-03-22T10:08:27;4.10;;;3.33;;
21297;SDS011;10808;48.010;11.326;2024-03-22T10:10:53;4.93;;;3.40;;
21297;SDS011;10808;48.010;11.326;2024-03-22T10:13:19;3.90;;;3.50;;
21297;SDS011;10808;48.010;11.326;2024-03-22T10:15:45;4.13;;;3.60;;
21297;SDS011;10808;48.010;11.326;2024-03-22T10:18:15;4.75;;;3.47;;
21297;SDS011;10808;48.010;11.326;2024-03-22T10:20:41;6.15;;;3.60;;
21297;SDS011;10808;48.010;11.326;2024-03-22T10:23:07;4.55;;;3.60;;
21297;SDS011;10808;48.010;11.326;2024-03-22T10:25:34;5.47;;;3.42;;
21297;SDS011;10808;48.010;11.326;2024-03-22T10:28:00;4.40;;;3.60;;
21297;SDS011;10808;48.010;11.326;2024-03-22T10:30:26;5.32;;;3.60;;
21297;SDS011;10808;48.010;11.326;2024-03-22T10:32:53;4.97;;;3.50;;
21297;SDS011;10808;48.010;11.326;2024-03-22T10:35:20;4.57;;;3.60;;
21297;SDS011;10808;48.010;11.326;2024-03-22T10:37:46;5.32;;;3.40;;
21297;SDS011;10808;48.010;11.326;2024-03-22T10:40:14;4.55;;;3.58;;
21297;SDS011;10808;48.010;11.326;2024-03-22T10:42:41;5.13;;;3.55;;
21297;SDS011;10808;48.010;11.326;2024-03-22T10:45:09;6.07;;;3.70;;
21297;SDS011;10808;48.010;11.326;2024-03-22T10:47:36;4.90;;;3.80;;
21297;SDS011;10808;48.010;11.326;2024-03-22T10:50:06;4.90;;;3.88;;
21297;SDS011;10808;48.010;11.326;2024-03-22T10:52:40;5.43;;;3.85;;
21297;SDS011;10808;48.010;11.326;2024-03-22T10:55:14;5.57;;;3.97;;
21297;SDS011;10808;48.010;11.326;2024-03-22T10:57:56;4.63;;;3.80;;
21297;SDS011;10808;48.010;11.326;2024-03-22T11:00:29;4.25;;;3.30;;
21297;SDS011;10808;48.010;11.326;2024-03-22T11:02:56;4.28;;;3.22;;
21297;SDS011;10808;48.010;11.326;2024-03-22T11:05:22;3.90;;;3.20;;
21297;SDS011;10808;48.010;11.326;2024-03-22T11:08:02;4.70;;;3.42;;
21297;SDS011;10808;48.010;11.326;2024-03-22T11:10:36;4.47;;;3.60;;
21297;SDS011;10808;48.010;11.326;2024-03-22T11:13:06;4.07;;;3.33;;
21297;SDS011;10808;48.010;11.326;2024-03-22T11:15:33;4.03;;;3.08;;
21297;SDS011;10808;48.010;11.326;2024-03-22T11:17:59;4.60;;;3.50;;
21297;SDS011;10808;48.010;11.326;2024-03-22T11:20:26;4.53;;;3.80;;
21297;SDS011;10808;48.010;11.326;2024-03-22T11:22:54;5.40;;;3.50;;
21297;SDS011;10808;48.010;11.326;2024-03-22T11:25:20;5.03;;;3.90;;
21297;SDS011;10808;48.010;11.326;2024-03-22T11:27:46;3.97;;;3.45;;
21297;SDS011;10808;48.010;11.326;2024-03-22T11:30:12;4.47;;;3.47;;
21297;SDS011;10808;48.010;11.326;2024-03-22T11:32:39;3.75;;;3.20;;
21297;SDS011;10808;48.010;11.326;2024-03-22T11:35:11;4.20;;;3.65;;
21297;SDS011;10808;48.010;11.326;2024-03-22T11:37:38;5.33;;;3.73;;
21297;SDS011;10808;48.010;11.326;2024-03-22T11:40:04;4.00;;;3.60;;
21297;SDS011;10808;48.010;11.326;2024-03-22T11:42:34;6.57;;;3.70;;
21297;SDS011;10808;48.010;11.326;2024-03-22T11:45:01;4.38;;;3.35;;
21297;SDS011;10808;48.010;11.326;2024-03-22T11:47:28;5.57;;;4.13;;
21297;SDS011;10808;48.010;11.326;2024-03-22T11:49:57;4.88;;;3.75;;
21297;SDS011;10808;48.010;11.326;2024-03-22T11:52:26;5.68;;;3.83;;
21297;SDS011;10808;48.010;11.326;2024-03-22T11:54:56;5.40;;;4.20;;
21297;SDS011;10808;48.010;11.326;2024-03-22T11:57:28;7.78;;;4.65;;
21297;SDS011;10808;48.010;11.326;2024-03-22T11:59:58;6.15;;;4.15;;
21297;SDS011;10808;48.010;11.326;2024-03-22T12:02:25;4.70;;;3.80;;
21297;SDS011;10808;48.010;11.326;2024-03-22T12:04:51;5.03;;;4.50;;
21297;SDS011;10808;48.010;11.326;2024-03-22T12:07:18;6.55;;;4.78;;
21297;SDS011;10808;48.010;11.326;2024-03-22T12:09:44;6.20;;;4.32;;
21297;SDS011;10808;48.010;11.326;2024-03-22T12:12:11;5.53;;;4.00;;
21297;SDS011;10808;48.010;11.326;2024-03-22T12:14:38;6.80;;;4.72;;
21297;SDS011;10808;48.010;11.326;2024-03-22T12:17:05;6.20;;;4.32;;
21297;SDS011;10808;48.010;11.326;2024-03-22T12:19:31;5.82;;;4.15;;
21297;SDS011;10808;48.010;11.326;2024-03-22T12:21:58;4.70;;;3.30;;
21297;SDS011;10808;48.010;11.326;2024-03-22T12:24:24;4.35;;;3.95;;
21297;SDS011;10808;48.010;11.326;2024-03-22T12:26:50;6.53;;;4.28;;
21297;SDS011;10808;48.010;11.326;2024-03-22T12:29:17;6.25;;;4.10;;
21297;SDS011;10808;48.010;11.326;2024-03-22T12:31:43;5.10;;;3.73;;
21297;SDS011;10808;48.010;11.326;2024-03-22T12:34:09;5.10;;;3.58;;
21297;SDS011;10808;48.010;11.326;2024-03-22T12:36:36;4.10;;;3.70;;
21297;SDS011;10808;48.010;11.326;2024-03-22T12:39:04;5.63;;;3.92;;
21297;SDS011;10808;48.010;11.326;2024-03-22T12:41:31;4.20;;;3.70;;
21297;SDS011;10808;48.010;11.326;2024-03-22T12:43:58;4.28;;;3.47;;
21297;SDS011;10808;48.010;11.326;2024-03-22T12:46:25;6.87;;;3.87;;
21297;SDS011;10808;48.010;11.326;2024-03-22T12:48:52;6.53;;;3.70;;
21297;SDS011;10808;48.010;11.326;2024-03-22T12:51:19;5.15;;;3.70;;
21297;SDS011;10808;48.010;11.326;2024-03-22T12:53:46;4.82;;;4.25;;
21297;SDS011;10808;48.010;11.326;2024-03-22T12:56:12;4.82;;;3.88;;
21297;SDS011;10808;48.010;11.326;2024-03-22T12:58:38;4.38;;;3.80;;
21297;SDS011;10808;48.010;11.326;2024-03-22T13:01:05;6.30;;;3.88;;
21297;SDS011;10808;48.010;11.326;2024-03-22T13:03:34;5.60;;;4.20;;
21297;SDS011;10808;48.010;11.326;2024-03-22T13:06:00;5.57;;;4.13;;
21297;SDS011;10808;48.010;11.326;2024-03-22T13:08:26;4.55;;;3.80;;
21297;SDS011;10808;48.010;11.326;2024-03-22T13:10:52;5.50;;;3.97;;
21297;SDS011;10808;48.010;11.326;2024-03-22T13:13:18;5.35;;;3.70;;
21297;SDS011;10808;48.010;11.326;2024-03-22T13:15:44;5.03;;;3.92;;
21297;SDS011;10808;48.010;11.326;2024-03-22T13:18:12;5.05;;;3.90;;
21297;SDS011;10808;48.010;11.326;2024-03-22T13:20:38;3.65;;;3.20;;
21297;SDS011;10808;48.010;11.326;2024-03-22T13:23:05;5.00;;;3.33;;
21297;SDS011;10808;48.010;11.326;2024-03-22T13:25:31;4.63;;;3.60;;
21297;SDS011;10808;48.010;11.326;2024-03-22T13:27:57;4.20;;;3.60;;
21297;SDS011;10808;48.010;11.326;2024-03-22T13:30:23;4.70;;;3.22;;
21297;SDS011;10808;48.010;11.326;2024-03-22T13:32:49;3.97;;;3.20;;
21297;SDS011;10808;48.010;11.326;2024-03-22T13:35:16;4.55;;;3.00;;
21297;SDS011;10808;48.010;11.326;2024-03-22T13:37:42;6.03;;;2.90;;
21297;SDS011;10808;48.010;11.326;2024-03-22T13:40:08;4.93;;;2.67;;
21297;SDS011;10808;48.010;11.326;2024-03-22T13:42:34;2.42;;;2.20;;
21297;SDS011;10808;48.010;11.326;2024-03-22T13:45:00;3.60;;;1.85;;
21297;SDS011;10808;48.010;11.326;2024-03-22T13:47:26;3.23;;;2.03;;
21297;SDS011;10808;48.010;11.326;2024-03-22T13:49:58;2.10;;;1.90;;
21297;SDS011;10808;48.010;11.326;2024-03-22T13:52:24;2.65;;;1.83;;
21297;SDS011;10808;48.010;11.326;2024-03-22T13:54:51;3.30;;;1.90;;
21297;SDS011;10808;48.010;11.326;2024-03-22T13:57:17;2.85;;;1.95;;
21297;SDS011;10808;48.010;11.326;2024-03-22T13:59:43;2.67;;;1.80;;
21297;SDS011;10808;48.010;11.326;2024-03-22T14:02:09;3.22;;;1.90;;
21297;SDS011;10808;48.010;11.326;2024-03-22T14:04:36;2.20;;;1.60;;
21297;SDS011;10808;48.010;11.326;2024-03-22T14:07:04;1.92;;;1.60;;
21297;SDS011;10808;48.010;11.326;2024-03-22T14:09:31;2.42;;;1.80;;
21297;SDS011;10808;48.010;11.326;2024-03-22T14:11:58;3.83;;;1.50;;
21297;SDS011;10808;48.010;11.326;2024-03-22T14:14:25;2.85;;;1.60;;
21297;SDS011;10808;48.010;11.326;2024-03-22T14:16:55;1.70;;;1.60;;